EW0779 Largo FL US current weather conditions

sailwx.info

Wind from 101 at 0 knots gusting 9

Air temperature 27.8° C
Dewpoint 22.3° C

Last reported at 2019-Jul-21 22:00 UTC.
Time now 2019-Jul-21 23:09 UTC

Location: N 27°52' W 082°50'.
View on Google Maps.

See reports from other nearby stations

  
Tides and Currents Weather Stations Pressure Air Temp Water Temp Dewpoint Dewpoint Depression Visibility Wind Speed Wind Dir Waves Ship Positions
date/time (UTC)wind fromknots sea level pressurealtimeterstation pressurevisibilityair tempwater tempwave heightnotes
2019-Jul-21 22:00 101 0 gusting 9 27.8
2019-Jul-21 21:45 121 1 gusting 9 29.4
2019-Jul-21 21:30 252 31.1
2019-Jul-21 21:16 250 31.7
2019-Jul-21 21:00 232 32.2
2019-Jul-21 20:45 257 31.7
2019-Jul-21 20:30 277 1 gusting 7 31.7
2019-Jul-21 20:15 270 1 gusting 8 31.1
2019-Jul-21 20:00 287 0 gusting 6 31.7
2019-Jul-21 19:45 254 0 gusting 6 31.7
2019-Jul-21 19:30 282 31.1
2019-Jul-21 19:15 255 31.7
2019-Jul-21 19:00 086 30.0
2019-Jul-21 18:45 086 28.9
2019-Jul-21 18:30 083 0 gusting 6 30.0
2019-Jul-21 18:15 248 31.7
2019-Jul-21 18:00 205 0 gusting 5 32.2
2019-Jul-21 17:45 241 32.2
2019-Jul-21 17:30 233 1 gusting 10 31.7
2019-Jul-21 17:15 248 2 gusting 9 32.2
2019-Jul-21 17:00 229 2 gusting 6 32.8
2019-Jul-21 16:45 167 0 gusting 8 32.2
2019-Jul-21 16:30 250 32.2
2019-Jul-21 16:17 161 31.1
2019-Jul-21 16:01 148 30.6
2019-Jul-21 15:46 143 29.4
2019-Jul-21 15:31 148 30.0
2019-Jul-21 15:16 136 30.6
2019-Jul-21 15:01 094 31.1
2019-Jul-21 14:46 140 30.6
2019-Jul-21 14:31 085 0 gusting 6 30.6
2019-Jul-21 14:16 107 0 gusting 6 30.0
2019-Jul-21 14:01 090 29.4
2019-Jul-21 13:46 139 28.9
2019-Jul-21 13:30 079 1 gusting 6 28.3
2019-Jul-21 13:16 141 27.8
2019-Jul-21 13:01 080 27.8
2019-Jul-21 12:45 107 27.2
2019-Jul-21 12:30 083 26.7
2019-Jul-21 12:16 077 0 gusting 4 26.7
2019-Jul-21 12:00 098 26.1
2019-Jul-21 11:45 090 25.6
2019-Jul-21 11:30 086 25.0
2019-Jul-21 11:16 086 25.0
2019-Jul-21 11:00 085 25.0
2019-Jul-21 10:45 085 24.4
2019-Jul-21 10:30 084 24.4
2019-Jul-21 10:15 085 24.4
2019-Jul-21 10:00 085 24.4
2019-Jul-21 09:45 085 25.0
2019-Jul-21 09:30 085 25.0
2019-Jul-21 09:15 086 25.0
2019-Jul-21 09:00 088 25.0
2019-Jul-21 08:45 082 25.0
2019-Jul-21 08:30 082 25.0
2019-Jul-21 08:15 082 24.4
2019-Jul-21 08:00 080 24.4
2019-Jul-21 07:45 078 25.0
2019-Jul-21 07:30 078 25.0
2019-Jul-21 07:15 078 25.0
2019-Jul-21 07:00 077 25.0
2019-Jul-21 06:45 077 25.0
2019-Jul-21 06:30 077 25.0
2019-Jul-21 06:15 077 25.0
2019-Jul-21 06:00 102 25.0
2019-Jul-21 05:46 105 25.0
2019-Jul-21 05:31 105 25.0
2019-Jul-21 05:16 105 25.0
2019-Jul-21 05:01 105 25.0
2019-Jul-21 04:48 105 25.0
2019-Jul-21 04:31 109 25.0
2019-Jul-21 04:17 113 25.0
2019-Jul-21 04:02 113 25.0
2019-Jul-21 03:46 088 25.0
2019-Jul-21 03:33 084 25.0
2019-Jul-21 03:16 082 24.4
2019-Jul-21 03:02 082 24.4
2019-Jul-21 02:46 083 24.4
2019-Jul-21 02:31 094 24.4
2019-Jul-21 02:16 067 24.4
2019-Jul-21 02:01 063 24.4
2019-Jul-21 01:46 064 24.4
2019-Jul-21 01:31 086 25.0
2019-Jul-21 01:16 076 25.0
2019-Jul-21 01:01 076 24.4
2019-Jul-21 00:46 076 24.4
2019-Jul-21 00:31 019 23.9
2019-Jul-21 00:16 005 23.9
2019-Jul-21 00:01 077 23.3
2019-Jul-20 23:46 107 23.3
2019-Jul-20 23:31 108 23.3
2019-Jul-20 23:17 101 23.3
2019-Jul-20 23:01 112 23.3
2019-Jul-20 22:45 133 4 gusting 13 24.4
2019-Jul-20 22:30 125 9 gusting 20 26.1
2019-Jul-20 22:16 146 32.2
2019-Jul-20 22:01 227 32.8
2019-Jul-20 21:46 254 32.8
2019-Jul-20 21:31 240 3 gusting 8 32.8
2019-Jul-20 21:15 266 0 gusting 6 32.8
2019-Jul-20 21:00 279 2 gusting 9 32.2
2019-Jul-20 20:46 247 4 gusting 9 32.8
2019-Jul-20 20:31 252 32.2
2019-Jul-20 20:15 240 3 gusting 10 32.8
2019-Jul-20 20:01 239 1 gusting 9 32.8
2019-Jul-20 19:45 223 0 gusting 8 33.3
2019-Jul-20 19:30 238 2 gusting 10 32.8
2019-Jul-20 19:15 178 33.3
2019-Jul-20 19:01 240 0 gusting 6 32.8
2019-Jul-20 18:45 236 3 gusting 12 32.8
2019-Jul-20 18:30 244 0 gusting 8 32.8
2019-Jul-20 18:16 255 3 gusting 7 32.8
2019-Jul-20 18:00 269 1 gusting 8 32.2
2019-Jul-20 17:45 246 0 gusting 10 32.8
2019-Jul-20 17:30 214 0 gusting 6 32.8
2019-Jul-20 17:15 179 32.8
2019-Jul-20 17:00 200 32.8
2019-Jul-20 16:45 207 32.2
2019-Jul-20 16:31 153 0 gusting 7 32.2
2019-Jul-20 16:16 146 31.7
2019-Jul-20 16:00 243 32.2
2019-Jul-20 15:45 207 31.7
2019-Jul-20 15:30 140 31.7
2019-Jul-20 15:15 163 31.7
2019-Jul-20 15:00 142 0 gusting 6 30.6
2019-Jul-20 14:45 152 1 gusting 6 30.6
2019-Jul-20 14:30 134 30.6
2019-Jul-20 14:16 140 4 gusting 7 30.0
2019-Jul-20 14:01 153 1 gusting 8 29.4
2019-Jul-20 13:46 107 28.3
2019-Jul-20 13:31 109 27.8
2019-Jul-20 13:16 094 27.8
2019-Jul-20 13:02 113 27.2
2019-Jul-20 12:46 138 27.2
2019-Jul-20 12:31 135 0 gusting 5 27.2
2019-Jul-20 12:16 109 27.2
2019-Jul-20 12:01 088 0 gusting 5 26.7
2019-Jul-20 11:45 112 26.1
2019-Jul-20 11:31 097 25.6
2019-Jul-20 11:17 098 25.6
2019-Jul-20 11:00 104 25.6
2019-Jul-20 10:45 095 25.6
2019-Jul-20 10:31 096 25.6
2019-Jul-20 10:16 101 25.6
2019-Jul-20 10:00 098 25.6
2019-Jul-20 09:46 093 25.6
2019-Jul-20 09:30 086 25.6
2019-Jul-20 09:16 085 25.6
2019-Jul-20 09:00 075 25.6
2019-Jul-20 08:46 072 25.6
2019-Jul-20 08:30 072 25.6
2019-Jul-20 08:16 069 25.6
2019-Jul-20 08:00 069 25.6
2019-Jul-20 07:45 069 25.6
2019-Jul-20 07:30 088 25.6
2019-Jul-20 07:15 081 25.6
2019-Jul-20 07:00 081 25.6
2019-Jul-20 06:45 083 25.0
2019-Jul-20 06:30 089 25.0
2019-Jul-20 06:15 089 25.0
2019-Jul-20 06:00 092 24.4
2019-Jul-20 05:45 080 24.4
2019-Jul-20 05:30 086 23.9
2019-Jul-20 05:15 086 23.9
2019-Jul-20 05:00 086 24.4
2019-Jul-20 04:45 088 24.4
2019-Jul-20 04:30 080 24.4
2019-Jul-20 04:16 107 25.0
2019-Jul-20 04:02 103 25.0
2019-Jul-20 03:47 103 25.0
2019-Jul-20 03:31 103 25.0
2019-Jul-20 03:16 102 25.0
2019-Jul-20 03:01 109 25.0
2019-Jul-20 02:47 098 25.0
2019-Jul-20 02:31 099 25.0
2019-Jul-20 02:16 081 25.0
2019-Jul-20 02:01 019 25.0
2019-Jul-20 01:46 011 25.0
2019-Jul-20 01:31 069 0 gusting 8 25.6
2019-Jul-20 01:16 069 0 gusting 9 26.1
2019-Jul-20 01:01 085 26.7
2019-Jul-20 00:46 139 0 gusting 6 27.8
2019-Jul-20 00:32 133 28.9
2019-Jul-20 00:16 300 30.0
2019-Jul-20 00:01 299 30.0
2019-Jul-19 23:46 299 30.0
2019-Jul-19 23:32 005 30.0
2019-Jul-19 23:17 360 30.0
2019-Jul-19 23:00 296 30.6